createdAt,value
2024-05-09T00:01:56.755Z,81.43
2024-05-09T00:04:26.704Z,81.70
2024-05-09T00:06:56.746Z,81.86
2024-05-09T00:09:26.853Z,81.92
2024-05-09T00:11:56.961Z,82.40
2024-05-09T00:14:32.327Z,81.96
2024-05-09T00:17:02.527Z,81.93
2024-05-09T00:19:32.427Z,82.51
2024-05-09T00:22:05.054Z,82.39
2024-05-09T00:24:35.418Z,82.95
2024-05-09T00:27:05.945Z,83.00
2024-05-09T00:29:40.909Z,83.55
2024-05-09T00:32:11.453Z,83.05
2024-05-09T00:34:41.434Z,83.37
2024-05-09T00:37:11.335Z,83.28
2024-05-09T00:39:41.237Z,83.22
2024-05-09T00:42:11.397Z,83.60
2024-05-09T00:44:43.748Z,83.48
2024-05-09T00:47:13.911Z,83.33
2024-05-09T00:49:44.154Z,83.33
2024-05-09T00:52:14.157Z,83.69
2024-05-09T00:54:44.274Z,83.63
2024-05-09T00:57:14.437Z,83.74
2024-05-09T00:59:47.267Z,83.74
2024-05-09T01:02:18.357Z,83.38
2024-05-09T01:04:49.206Z,83.77
2024-05-09T01:07:22.521Z,84.00
2024-05-09T01:09:52.601Z,84.48
2024-05-09T01:12:22.692Z,85.16
2024-05-09T01:14:55.381Z,84.87
2024-05-09T01:17:25.447Z,85.44
2024-05-09T01:19:55.395Z,85.34
2024-05-09T01:22:27.436Z,85.26
2024-05-09T01:25:04.122Z,85.10
2024-05-09T01:27:34.913Z,85.87
2024-05-09T01:30:09.151Z,85.76
2024-05-09T01:32:39.776Z,85.87
2024-05-09T01:35:10.244Z,86.01
2024-05-09T01:37:40.527Z,85.88
2024-05-09T01:40:18.553Z,86.62
2024-05-09T01:42:52.637Z,86.68
2024-05-09T01:45:22.217Z,86.23
2024-05-09T01:47:52.352Z,86.20
2024-05-09T01:50:35.742Z,86.37
2024-05-09T01:53:09.656Z,86.62
2024-05-09T01:55:42.581Z,87.16
2024-05-09T01:58:15.717Z,86.91
2024-05-09T02:00:45.880Z,87.45
2024-05-09T02:03:17.769Z,87.38
2024-05-09T02:05:50.136Z,87.25
2024-05-09T02:08:22.311Z,87.97
2024-05-09T02:10:55.128Z,87.74
2024-05-09T02:13:26.582Z,87.69
2024-05-09T02:15:56.433Z,87.70
2024-05-09T02:18:27.052Z,88.08
2024-05-09T02:20:57.090Z,88.50
2024-05-09T02:23:27.346Z,88.52
2024-05-09T02:26:00.871Z,88.61
2024-05-09T02:28:30.784Z,88.12
2024-05-09T02:31:00.954Z,88.86
2024-05-09T02:33:32.175Z,88.97
2024-05-09T02:36:02.302Z,89.14
2024-05-09T02:38:29.674Z,89.50
2024-05-09T02:41:07.959Z,89.44
2024-05-09T02:43:35.224Z,89.34
2024-05-09T02:46:05.523Z,89.22
2024-05-09T02:48:32.887Z,89.42
2024-05-09T02:51:04.754Z,89.77
2024-05-09T02:53:32.189Z,89.67
2024-05-09T02:56:05.090Z,89.90
2024-05-09T02:58:32.351Z,89.91
2024-05-09T03:01:04.289Z,90.37
2024-05-09T03:03:31.828Z,90.66
2024-05-09T03:06:02.160Z,90.51
2024-05-09T03:08:29.187Z,91.10
2024-05-09T03:10:59.174Z,90.74
2024-05-09T03:13:29.228Z,91.34
2024-05-09T03:15:59.136Z,91.31
2024-05-09T03:18:28.988Z,91.71
2024-05-09T03:20:59.327Z,91.76
2024-05-09T03:23:26.846Z,91.85
2024-05-09T03:25:57.906Z,92.04
2024-05-09T03:28:25.531Z,92.57
2024-05-09T03:30:58.699Z,92.45
2024-05-09T03:33:27.138Z,92.96
2024-05-09T03:35:57.127Z,92.84
2024-05-09T03:38:27.028Z,93.31
2024-05-09T03:40:59.853Z,93.35
2024-05-09T03:43:31.441Z,93.62
2024-05-09T03:46:04.320Z,94.01
2024-05-09T03:48:37.378Z,94.11
2024-05-09T03:51:07.984Z,94.29
2024-05-09T03:53:35.362Z,94.20
2024-05-09T03:56:06.920Z,94.78
2024-05-09T03:58:34.459Z,95.29
2024-05-09T04:01:09.491Z,95.46
2024-05-09T04:03:37.141Z,95.69
2024-05-09T04:06:08.464Z,95.80
2024-05-09T04:08:35.908Z,95.97
2024-05-09T04:11:08.653Z,96.01
2024-05-09T04:13:35.961Z,95.85
2024-05-09T04:16:12.185Z,96.53
2024-05-09T04:18:40.328Z,96.51
2024-05-09T04:21:10.405Z,96.22
2024-05-09T04:23:39.279Z,96.67
2024-05-09T04:26:10.004Z,96.14
2024-05-09T04:28:37.270Z,96.33
2024-05-09T04:31:12.910Z,96.84
2024-05-09T04:33:40.400Z,96.69
2024-05-09T04:36:10.977Z,96.50
2024-05-09T04:38:38.289Z,96.54
2024-05-09T04:41:08.299Z,96.58
2024-05-09T04:43:38.181Z,96.50
2024-05-09T04:46:13.291Z,96.71
2024-05-09T04:48:40.574Z,96.73
2024-05-09T04:51:10.612Z,96.60
2024-05-09T04:53:38.696Z,96.32
2024-05-09T04:56:09.991Z,96.51
2024-05-09T04:58:37.720Z,96.07
2024-05-09T05:01:10.625Z,95.97
2024-05-09T05:03:38.346Z,96.11
2024-05-09T05:06:08.720Z,95.66
2024-05-09T05:08:36.374Z,95.69
2024-05-09T05:11:08.091Z,95.45
2024-05-09T05:13:37.883Z,95.41
2024-05-09T05:16:12.251Z,95.25
2024-05-09T05:18:39.985Z,95.13
2024-05-09T05:21:11.265Z,95.20
2024-05-09T05:23:43.841Z,94.73
2024-05-09T05:26:11.370Z,94.52
2024-05-09T05:28:41.800Z,94.31
2024-05-09T05:31:15.334Z,94.43
2024-05-09T05:33:45.568Z,93.92
2024-05-09T05:36:13.482Z,93.61
2024-05-09T05:38:45.521Z,93.45
2024-05-09T05:41:14.194Z,93.14
2024-05-09T05:43:51.056Z,92.75
2024-05-09T05:46:24.204Z,92.88
2024-05-09T05:48:54.550Z,92.27
2024-05-09T05:51:22.262Z,91.90
2024-05-09T05:53:52.505Z,91.79
2024-05-09T05:56:19.987Z,91.23
2024-05-09T05:58:50.363Z,91.09
2024-05-09T06:01:18.086Z,90.36
2024-05-09T06:03:51.125Z,90.06
2024-05-09T06:06:20.917Z,89.94
2024-05-09T06:08:51.034Z,89.47
2024-05-09T06:11:19.107Z,88.93
2024-05-09T06:13:49.303Z,88.97
2024-05-09T06:16:19.040Z,88.73
2024-05-09T06:18:51.746Z,87.71
2024-05-09T06:21:22.165Z,87.46
2024-05-09T06:23:50.171Z,87.64
2024-05-09T06:26:20.601Z,87.26
2024-05-09T06:28:48.073Z,87.25
2024-05-09T06:31:18.012Z,86.54
2024-05-09T06:33:45.510Z,86.64
2024-05-09T06:36:18.120Z,85.72
2024-05-09T06:38:45.615Z,85.70
2024-05-09T06:41:18.677Z,85.27
2024-05-09T06:43:46.098Z,85.24
2024-05-09T06:46:21.239Z,84.94
2024-05-09T06:48:49.302Z,85.15
2024-05-09T06:51:23.244Z,84.44
2024-05-09T06:53:50.856Z,83.97
2024-05-09T06:56:21.696Z,83.80
2024-05-09T06:58:49.102Z,83.49
2024-05-09T07:01:19.326Z,82.89
2024-05-09T07:03:46.529Z,82.31
2024-05-09T07:06:16.699Z,81.49
2024-05-09T07:08:48.023Z,81.88
2024-05-09T07:11:24.700Z,81.05
2024-05-09T07:13:52.399Z,80.48
2024-05-09T07:16:22.348Z,80.58
2024-05-09T07:18:57.155Z,80.25
2024-05-09T07:21:28.296Z,80.21
2024-05-09T07:23:58.458Z,80.27
2024-05-09T07:26:28.441Z,79.91
2024-05-09T07:28:55.749Z,79.14
2024-05-09T07:31:28.296Z,79.02
2024-05-09T07:33:56.044Z,78.63
2024-05-09T07:36:25.969Z,77.77
2024-05-09T07:38:53.253Z,77.48
2024-05-09T07:41:25.983Z,76.98
2024-05-09T07:43:53.319Z,76.36
2024-05-09T07:47:14.655Z,75.68
2024-05-09T07:50:54.581Z,74.90
2024-05-09T07:53:25.128Z,74.37
2024-05-09T07:54:55.213Z,75.05
2024-05-09T07:57:32.586Z,75.46
2024-05-09T08:00:11.748Z,75.75
2024-05-09T08:02:44.170Z,75.58
2024-05-09T08:05:11.562Z,75.52
2024-05-09T08:07:42.438Z,75.70
2024-05-09T08:10:12.757Z,75.43
2024-05-09T08:12:45.750Z,74.96
2024-05-09T08:15:13.148Z,74.37
2024-05-09T08:17:43.379Z,74.13
2024-05-09T08:22:41.248Z,71.49
2024-05-09T08:25:10.702Z,68.13
2024-05-09T08:27:45.664Z,63.00
2024-05-09T08:30:21.586Z,59.76
2024-05-09T08:32:55.400Z,57.12
2024-05-09T08:35:22.698Z,55.49
2024-05-09T08:37:53.720Z,51.52
2024-05-09T08:40:30.529Z,48.72
2024-05-09T08:43:12.161Z,47.12
2024-05-09T08:45:43.791Z,46.75
2024-05-09T08:48:16.680Z,45.19
2024-05-09T08:50:45.594Z,45.70
2024-05-09T08:53:16.127Z,44.46
2024-05-09T08:55:44.807Z,43.37
2024-05-09T08:58:19.906Z,43.71
2024-05-09T09:00:49.786Z,43.07
2024-05-09T09:03:21.651Z,43.54
2024-05-09T09:05:58.574Z,43.61
2024-05-09T09:08:29.110Z,43.53
2024-05-09T09:11:01.185Z,44.49
2024-05-09T09:13:33.973Z,45.17
2024-05-09T09:16:03.006Z,46.29
2024-05-09T09:18:34.673Z,46.65
2024-05-09T09:21:03.437Z,46.86
2024-05-09T09:23:33.456Z,47.64
2024-05-09T09:26:02.045Z,48.21
2024-05-09T09:28:40.907Z,48.32
2024-05-09T09:31:08.531Z,48.68
2024-05-09T09:33:38.699Z,49.39
2024-05-09T09:36:07.604Z,50.16
2024-05-09T09:38:40.336Z,50.78
2024-05-09T09:41:09.142Z,50.93
2024-05-09T09:43:42.674Z,51.05
2024-05-09T09:46:14.878Z,51.16
2024-05-09T09:48:46.416Z,50.47
2024-05-09T09:51:16.202Z,50.36
2024-05-09T09:53:47.404Z,50.55
2024-05-09T09:56:18.229Z,50.50
2024-05-09T09:58:51.959Z,50.85
2024-05-09T10:01:19.565Z,51.53
2024-05-09T10:03:49.670Z,52.52
2024-05-09T10:06:18.057Z,52.70
2024-05-09T10:08:50.682Z,52.79
2024-05-09T10:11:22.599Z,52.97
2024-05-09T10:13:56.860Z,53.08
2024-05-09T10:16:24.788Z,53.00
2024-05-09T10:18:55.128Z,52.82
2024-05-09T10:21:22.663Z,52.57
2024-05-09T10:24:02.781Z,52.34
2024-05-09T10:26:33.470Z,51.18
2024-05-09T10:29:14.178Z,51.43
2024-05-09T10:31:42.331Z,50.91
2024-05-09T10:34:20.079Z,50.98
2024-05-09T10:36:52.962Z,50.93
2024-05-09T10:39:24.248Z,51.05
2024-05-09T10:41:51.473Z,50.43
2024-05-09T10:44:24.772Z,49.81
2024-05-09T10:46:54.958Z,50.92
2024-05-09T10:49:25.669Z,51.12
2024-05-09T10:51:54.198Z,51.28
2024-05-09T10:54:24.458Z,51.67
2024-05-09T10:56:56.991Z,51.32
2024-05-09T10:59:38.156Z,51.28
2024-05-09T11:02:06.944Z,50.81
2024-05-09T11:04:38.578Z,51.44
2024-05-09T11:07:09.154Z,51.64
2024-05-09T11:09:41.805Z,51.73
2024-05-09T11:12:09.787Z,51.64
2024-05-09T11:14:42.501Z,52.04
2024-05-09T11:17:09.865Z,51.76
2024-05-09T11:19:39.132Z,51.95
2024-05-09T11:22:10.418Z,51.61
2024-05-09T11:24:38.393Z,51.67
2024-05-09T11:27:09.157Z,52.56
2024-05-09T11:29:43.647Z,52.75
2024-05-09T11:32:16.648Z,52.09
2024-05-09T11:34:44.412Z,52.48
2024-05-09T11:37:15.992Z,52.21
2024-05-09T11:39:43.367Z,52.21
2024-05-09T11:42:14.395Z,52.48
2024-05-09T11:44:46.616Z,52.26
2024-05-09T11:47:17.048Z,51.93
2024-05-09T11:49:44.303Z,51.78
2024-05-09T11:52:14.354Z,52.03
2024-05-09T11:54:43.832Z,52.37
2024-05-09T11:57:13.841Z,52.20
2024-05-09T11:59:46.215Z,51.88
2024-05-09T12:02:16.436Z,51.62
2024-05-09T12:04:44.502Z,52.01
2024-05-09T12:07:14.649Z,52.03
2024-05-09T12:09:41.684Z,51.85
2024-05-09T12:12:11.583Z,52.48
2024-05-09T12:14:38.934Z,53.09
2024-05-09T12:17:11.677Z,53.75
2024-05-09T12:19:39.131Z,53.46
2024-05-09T12:22:09.289Z,53.82
2024-05-09T12:24:36.876Z,54.00
2024-05-09T12:27:07.246Z,53.50
2024-05-09T12:29:37.569Z,53.47
2024-05-09T12:32:12.267Z,53.36
2024-05-09T12:34:39.827Z,53.44
2024-05-09T12:37:09.947Z,53.25
2024-05-09T12:39:37.546Z,53.33
2024-05-09T12:42:08.292Z,52.61
2024-05-09T12:44:36.471Z,52.74
2024-05-09T12:47:06.871Z,53.80
2024-05-09T12:49:37.039Z,53.13
2024-05-09T12:52:09.065Z,52.43
2024-05-09T12:54:36.460Z,52.66
2024-05-09T12:57:06.799Z,52.86
2024-05-09T12:59:34.262Z,54.02
2024-05-09T13:02:04.611Z,54.81
2024-05-09T13:04:32.253Z,55.67
2024-05-09T13:07:07.858Z,56.03
2024-05-09T13:09:35.741Z,56.05
2024-05-09T13:12:05.683Z,55.55
2024-05-09T13:14:33.208Z,54.93
2024-05-09T13:17:03.191Z,54.95
2024-05-09T13:19:30.221Z,54.66
2024-05-09T13:22:00.578Z,54.30
2024-05-09T13:24:50.848Z,53.99
2024-05-09T13:27:20.813Z,53.15
2024-05-09T13:29:49.602Z,52.63
2024-05-09T13:32:19.788Z,51.38
2024-05-09T13:34:47.046Z,51.09
2024-05-09T13:37:17.355Z,50.37
2024-05-09T13:39:44.786Z,49.73
2024-05-09T13:42:17.528Z,48.63
2024-05-09T13:44:44.775Z,48.04
2024-05-09T13:47:17.123Z,47.42
2024-05-09T13:49:44.796Z,48.05
2024-05-09T13:52:14.921Z,47.80
2024-05-09T13:54:42.364Z,48.97
2024-05-09T13:57:12.327Z,48.80
2024-05-09T13:59:42.432Z,48.36
2024-05-09T14:02:12.732Z,47.76
2024-05-09T14:04:40.307Z,47.47
2024-05-09T14:07:10.938Z,47.15
2024-05-09T14:09:38.520Z,47.56
2024-05-09T14:12:11.357Z,47.94
2024-05-09T14:14:42.594Z,47.91
2024-05-09T14:17:13.878Z,48.86
2024-05-09T14:19:41.306Z,49.24
2024-05-09T14:22:14.120Z,48.93
2024-05-09T14:24:41.572Z,48.79
2024-05-09T14:27:11.914Z,48.06
2024-05-09T14:29:41.935Z,47.15
2024-05-09T14:32:11.806Z,47.02
2024-05-09T14:34:39.189Z,47.17
2024-05-09T14:37:09.380Z,47.22
2024-05-09T14:39:36.723Z,47.34
2024-05-09T14:42:07.110Z,47.29
2024-05-09T14:44:34.365Z,47.53
2024-05-09T14:47:07.482Z,47.43
2024-05-09T14:49:34.823Z,47.11
2024-05-09T14:52:04.864Z,47.07
2024-05-09T14:54:32.171Z,47.83
2024-05-09T14:57:02.089Z,47.68
2024-05-09T14:59:32.133Z,47.79
2024-05-09T15:02:02.107Z,47.70
2024-05-09T15:04:36.727Z,47.96
2024-05-09T15:07:08.344Z,47.78
2024-05-09T15:09:38.828Z,48.07
2024-05-09T15:12:09.542Z,48.66
2024-05-09T15:14:37.857Z,48.96
2024-05-09T15:17:08.038Z,49.20
2024-05-09T15:19:39.906Z,48.76
2024-05-09T15:22:13.211Z,48.41
2024-05-09T15:24:43.171Z,48.64
2024-05-09T15:27:13.843Z,48.83
2024-05-09T15:29:42.372Z,48.69
2024-05-09T15:32:12.455Z,48.75
2024-05-09T15:34:46.250Z,48.79
2024-05-09T15:37:18.478Z,49.10
2024-05-09T15:39:45.908Z,48.97
2024-05-09T15:42:16.102Z,49.21
2024-05-09T15:44:45.210Z,48.76
2024-05-09T15:47:15.815Z,48.49
2024-05-09T15:49:47.987Z,48.47
2024-05-09T15:52:19.967Z,48.57
2024-05-09T15:54:47.297Z,48.12
2024-05-09T15:57:19.945Z,47.57
2024-05-09T15:59:48.567Z,47.41
2024-05-09T16:02:21.207Z,48.18
2024-05-09T16:04:51.523Z,48.47
2024-05-09T16:07:22.424Z,48.34
2024-05-09T16:09:49.694Z,48.47
2024-05-09T16:12:19.962Z,48.86
2024-05-09T16:14:47.571Z,49.70
2024-05-09T16:17:17.819Z,50.11
2024-05-09T16:19:46.264Z,50.09
2024-05-09T16:22:19.751Z,50.51
2024-05-09T16:24:47.207Z,50.88
2024-05-09T16:27:17.371Z,51.10
2024-05-09T16:29:44.647Z,51.67
2024-05-09T16:32:18.220Z,51.96
2024-05-09T16:34:46.073Z,52.28
2024-05-09T16:37:18.940Z,52.72
2024-05-09T16:39:46.598Z,53.38
2024-05-09T16:42:16.577Z,53.53
2024-05-09T16:44:43.792Z,53.69
2024-05-09T16:47:14.159Z,53.89
2024-05-09T16:49:41.473Z,54.65
2024-05-09T16:52:11.333Z,54.79
2024-05-09T16:54:41.574Z,55.18
2024-05-09T16:57:11.641Z,55.84
2024-05-09T16:59:39.528Z,55.60
2024-05-09T17:02:09.993Z,55.42
2024-05-09T17:04:38.763Z,55.16
2024-05-09T17:07:08.867Z,54.75
2024-05-09T17:09:36.011Z,54.93
2024-05-09T17:12:09.923Z,55.03
2024-05-09T17:14:42.672Z,55.13
2024-05-09T17:17:13.146Z,55.30
2024-05-09T17:19:42.495Z,55.63
2024-05-09T17:22:12.784Z,55.71
2024-05-09T17:24:44.113Z,55.98
2024-05-09T17:27:17.017Z,56.49
2024-05-09T17:29:55.865Z,57.09
2024-05-09T17:32:26.098Z,57.26
2024-05-09T17:34:53.356Z,57.07
2024-05-09T17:37:24.747Z,57.14
2024-05-09T17:39:52.326Z,57.64
2024-05-09T17:42:27.058Z,58.27
2024-05-09T17:44:54.322Z,58.24
2024-05-09T17:47:24.348Z,58.01
2024-05-09T17:49:51.593Z,57.86
2024-05-09T17:52:21.834Z,57.77
2024-05-09T17:54:49.195Z,58.05
2024-05-09T17:57:19.129Z,58.37
2024-05-09T17:59:50.478Z,58.87
2024-05-09T18:02:21.542Z,59.13
2024-05-09T18:04:49.208Z,59.21
2024-05-09T18:07:19.240Z,59.97
2024-05-09T18:09:46.633Z,60.28
2024-05-09T18:12:16.783Z,60.27
2024-05-09T18:14:43.880Z,60.32
2024-05-09T18:17:20.253Z,60.76
2024-05-09T18:19:49.713Z,61.34
2024-05-09T18:22:19.983Z,61.85
2024-05-09T18:24:47.460Z,62.05
2024-05-09T18:27:19.767Z,62.35
2024-05-09T18:29:47.322Z,62.53
2024-05-09T18:32:20.024Z,62.91
2024-05-09T18:34:47.545Z,63.26
2024-05-09T18:37:17.697Z,63.32
2024-05-09T18:39:45.100Z,63.75
2024-05-09T18:42:15.053Z,64.36
2024-05-09T18:44:42.548Z,64.66
2024-05-09T18:47:12.976Z,64.66
2024-05-09T18:49:45.195Z,64.21
2024-05-09T18:52:15.801Z,64.81
2024-05-09T18:54:43.497Z,65.07
2024-05-09T18:57:13.428Z,64.92
2024-05-09T18:59:40.930Z,65.29
2024-05-09T19:02:11.077Z,65.45
2024-05-09T19:04:38.748Z,65.75
2024-05-09T19:07:13.841Z,65.57
2024-05-09T19:09:41.259Z,66.11
2024-05-09T19:12:16.878Z,66.60
2024-05-09T19:14:44.941Z,66.42
2024-05-09T19:17:16.561Z,66.83
2024-05-09T19:19:44.130Z,67.31
2024-05-09T19:22:16.982Z,67.62
2024-05-09T19:24:45.564Z,68.05
2024-05-09T19:27:16.353Z,68.21
2024-05-09T19:29:44.008Z,68.21
2024-05-09T19:32:14.109Z,68.03
2024-05-09T19:34:42.620Z,68.50
2024-05-09T19:37:14.010Z,68.21
2024-05-09T19:39:45.468Z,69.52
2024-05-09T19:42:15.452Z,69.41
2024-05-09T19:44:42.787Z,69.65
2024-05-09T19:47:12.806Z,70.13
2024-05-09T19:49:40.279Z,70.24
2024-05-09T19:52:10.455Z,70.28
2024-05-09T19:54:37.614Z,70.10
2024-05-09T19:57:14.682Z,69.97
2024-05-09T19:59:41.984Z,70.60
2024-05-09T20:02:12.026Z,70.46
2024-05-09T20:04:39.450Z,70.34
2024-05-09T20:07:09.586Z,70.86
2024-05-09T20:09:36.689Z,70.87
2024-05-09T20:12:09.572Z,71.36
2024-05-09T20:14:37.006Z,72.01
2024-05-09T20:17:08.002Z,72.49
2024-05-09T20:19:39.428Z,72.57
2024-05-09T20:22:06.799Z,72.94
2024-05-09T20:24:36.812Z,73.33
2024-05-09T20:27:07.076Z,73.15
2024-05-09T20:29:36.797Z,73.23
2024-05-09T20:32:04.819Z,72.93
2024-05-09T20:34:34.741Z,73.56
2024-05-09T20:37:06.645Z,73.71
2024-05-09T20:39:38.999Z,74.24
2024-05-09T20:42:10.773Z,74.21
2024-05-09T20:44:47.848Z,74.51
2024-05-09T20:47:16.554Z,74.08
2024-05-09T20:49:47.020Z,74.46
2024-05-09T20:52:14.993Z,74.68
2024-05-09T20:54:45.022Z,74.50
2024-05-09T20:57:17.627Z,74.77
2024-05-09T20:59:44.949Z,74.86
2024-05-09T21:02:15.460Z,75.16
2024-05-09T21:04:43.135Z,75.19
2024-05-09T21:07:13.715Z,75.69
2024-05-09T21:09:41.417Z,76.08
2024-05-09T21:12:11.670Z,76.54
2024-05-09T21:14:42.230Z,77.03
2024-05-09T21:17:15.673Z,77.71
2024-05-09T21:19:43.228Z,77.94
2024-05-09T21:22:13.156Z,78.60
2024-05-09T21:24:41.496Z,79.46
2024-05-09T21:27:12.018Z,79.32
2024-05-09T21:29:42.343Z,79.18
2024-05-09T21:32:12.546Z,79.92
2024-05-09T21:34:40.155Z,80.46
2024-05-09T21:37:11.493Z,80.79
2024-05-09T21:39:40.031Z,80.86
2024-05-09T21:42:10.191Z,80.81
2024-05-09T21:44:37.384Z,80.54
2024-05-09T21:47:15.947Z,80.94
2024-05-09T21:49:43.362Z,81.01
2024-05-09T21:52:13.876Z,81.58
2024-05-09T21:54:41.279Z,81.11
2024-05-09T21:57:14.883Z,81.47
2024-05-09T21:59:42.200Z,81.55
2024-05-09T22:02:15.354Z,81.59
2024-05-09T22:04:42.834Z,81.54
2024-05-09T22:07:13.272Z,81.66
2024-05-09T22:09:45.487Z,81.71
2024-05-09T22:12:15.607Z,81.68
2024-05-09T22:14:43.162Z,81.94
2024-05-09T22:17:16.421Z,82.43
2024-05-09T22:19:45.562Z,82.83
2024-05-09T22:22:15.889Z,83.65
2024-05-09T22:24:43.749Z,83.71
2024-05-09T22:27:15.933Z,84.44
2024-05-09T22:29:43.135Z,84.24
2024-05-09T22:32:15.970Z,84.70
2024-05-09T22:34:43.813Z,84.31
2024-05-09T22:37:14.212Z,84.28
2024-05-09T22:39:42.603Z,84.66
2024-05-09T22:42:12.500Z,84.66
2024-05-09T22:44:40.043Z,84.78
2024-05-09T22:47:10.003Z,85.04
2024-05-09T22:49:43.436Z,85.34
2024-05-09T22:52:10.893Z,84.96
2024-05-09T22:54:41.148Z,85.06
2024-05-09T22:57:10.557Z,84.84
2024-05-09T22:59:40.909Z,84.63
2024-05-09T23:02:09.325Z,84.25
2024-05-09T23:04:43.639Z,84.49
2024-05-09T23:07:12.592Z,84.23
2024-05-09T23:09:45.151Z,84.42
2024-05-09T23:12:17.753Z,84.49
2024-05-09T23:14:47.706Z,84.04
2024-05-09T23:17:15.315Z,84.21
2024-05-09T23:19:48.169Z,83.75
2024-05-09T23:22:16.089Z,83.66
2024-05-09T23:24:46.168Z,83.44
2024-05-09T23:27:13.534Z,83.71
2024-05-09T23:29:44.096Z,83.98
2024-05-09T23:32:11.903Z,83.57
2024-05-09T23:34:42.259Z,83.17
2024-05-09T23:37:12.280Z,83.28
2024-05-09T23:39:44.977Z,83.60
2024-05-09T23:42:15.343Z,84.10
2024-05-09T23:44:45.333Z,84.07
2024-05-09T23:47:12.644Z,83.80
2024-05-09T23:49:43.196Z,84.10
2024-05-09T23:52:13.845Z,84.12
2024-05-09T23:54:44.142Z,83.93
2024-05-09T23:57:11.632Z,84.11
2024-05-09T23:59:41.986Z,83.82
